createdAt,value
2023-07-10T00:01:17.067Z,86.50
2023-07-10T00:03:45.144Z,86.50
2023-07-10T00:06:15.455Z,86.40
2023-07-10T00:08:45.232Z,86.50
2023-07-10T00:11:17.382Z,86.60
2023-07-10T00:13:45.504Z,86.60
2023-07-10T00:16:19.846Z,86.70
2023-07-10T00:18:48.202Z,86.70
2023-07-10T00:21:16.600Z,86.80
2023-07-10T00:23:44.378Z,86.80
2023-07-10T00:26:14.364Z,86.70
2023-07-10T00:28:43.212Z,86.90
2023-07-10T00:31:14.108Z,86.90
2023-07-10T00:33:43.238Z,87.00
2023-07-10T00:36:28.908Z,87.10
2023-07-10T00:38:57.197Z,87.10
2023-07-10T00:41:28.005Z,87.10
2023-07-10T00:44:01.357Z,87.20
2023-07-10T00:46:35.593Z,87.20
2023-07-10T00:49:12.867Z,87.20
2023-07-10T00:51:46.366Z,87.30
2023-07-10T00:54:22.119Z,87.40
2023-07-10T00:56:50.805Z,87.40
2023-07-10T00:59:26.553Z,87.40
2023-07-10T01:02:20.965Z,87.40
2023-07-10T01:04:55.612Z,87.40
2023-07-10T01:07:25.104Z,87.50
2023-07-10T01:09:57.989Z,87.60
2023-07-10T01:12:26.158Z,87.60
2023-07-10T01:14:54.177Z,87.60
2023-07-10T01:17:22.038Z,87.70
2023-07-10T01:19:54.143Z,87.60
2023-07-10T01:22:23.477Z,87.70
2023-07-10T01:24:53.660Z,87.60
2023-07-10T01:27:23.130Z,87.50
2023-07-10T01:29:58.165Z,87.70
2023-07-10T01:32:28.974Z,87.90
2023-07-10T01:35:01.445Z,87.80
2023-07-10T01:37:30.585Z,87.80
2023-07-10T01:39:58.370Z,88.00
2023-07-10T01:42:26.153Z,87.80
2023-07-10T01:44:54.126Z,87.70
2023-07-10T01:47:22.592Z,87.70
2023-07-10T01:49:58.609Z,87.60
2023-07-10T01:52:26.471Z,87.70
2023-07-10T01:54:57.466Z,87.80
2023-07-10T01:57:27.968Z,87.90
2023-07-10T01:59:55.955Z,88.00
2023-07-10T02:02:23.993Z,88.00
2023-07-10T02:04:51.833Z,88.00
2023-07-10T02:07:19.663Z,88.20
2023-07-10T02:09:47.443Z,88.10
2023-07-10T02:12:16.616Z,88.80
2023-07-10T02:14:46.265Z,88.20
2023-07-10T02:17:14.126Z,88.20
2023-07-10T02:19:41.925Z,88.30
2023-07-10T02:22:09.701Z,88.50
2023-07-10T02:24:37.625Z,88.60
2023-07-10T02:27:05.847Z,88.40
2023-07-10T02:29:35.036Z,88.40
2023-07-10T02:32:04.908Z,88.40
2023-07-10T02:34:32.846Z,89.30
2023-07-10T02:37:00.652Z,88.60
2023-07-10T02:39:28.519Z,88.50
2023-07-10T02:41:56.296Z,88.50
2023-07-10T02:44:24.121Z,88.50
2023-07-10T02:46:53.255Z,88.60
2023-07-10T02:49:21.017Z,88.80
2023-07-10T02:51:48.839Z,89.00
2023-07-10T02:54:16.702Z,89.00
2023-07-10T02:56:44.842Z,89.00
2023-07-10T02:59:12.591Z,88.90
2023-07-10T03:01:41.029Z,88.90
2023-07-10T03:04:10.375Z,88.90
2023-07-10T03:06:38.165Z,89.00
2023-07-10T03:09:06.055Z,89.10
2023-07-10T03:11:33.817Z,89.20
2023-07-10T03:14:03.817Z,89.30
2023-07-10T03:16:31.686Z,89.50
2023-07-10T03:18:59.550Z,89.40
2023-07-10T03:21:28.721Z,89.50
2023-07-10T03:23:56.496Z,89.70
2023-07-10T03:26:24.287Z,89.70
2023-07-10T03:29:04.661Z,89.60
2023-07-10T03:31:33.323Z,89.70
2023-07-10T03:34:01.118Z,89.70
2023-07-10T03:36:30.802Z,89.70
2023-07-10T03:38:58.635Z,89.90
2023-07-10T03:41:26.609Z,89.80
2023-07-10T03:43:54.693Z,89.90
2023-07-10T03:46:22.795Z,90.00
2023-07-10T03:48:50.829Z,90.00
2023-07-10T03:51:18.826Z,90.10
2023-07-10T03:53:48.235Z,90.00
2023-07-10T03:56:16.389Z,90.00
2023-07-10T03:58:46.796Z,90.10
2023-07-10T04:01:15.701Z,90.00
2023-07-10T04:03:44.224Z,90.00
2023-07-10T04:06:14.839Z,90.10
2023-07-10T04:08:44.595Z,90.10
2023-07-10T04:11:16.094Z,90.10
2023-07-10T04:13:44.522Z,90.20
2023-07-10T04:16:15.164Z,90.20
2023-07-10T04:18:44.128Z,90.10
2023-07-10T04:21:15.569Z,90.10
2023-07-10T04:23:43.493Z,90.10
2023-07-10T04:26:17.258Z,90.20
2023-07-10T04:28:45.619Z,90.30
2023-07-10T04:31:13.511Z,90.30
2023-07-10T04:33:41.392Z,90.30
2023-07-10T04:36:10.388Z,90.30
2023-07-10T04:38:38.515Z,90.20
2023-07-10T04:41:09.185Z,90.30
2023-07-10T04:43:38.387Z,90.30
2023-07-10T04:46:08.421Z,90.30
2023-07-10T04:48:36.414Z,90.20
2023-07-10T04:51:05.869Z,90.30
2023-07-10T04:53:34.742Z,90.20
2023-07-10T04:56:04.261Z,90.30
2023-07-10T04:58:49.131Z,90.30
2023-07-10T05:01:17.722Z,90.30
2023-07-10T05:03:45.586Z,90.30
2023-07-10T05:06:13.419Z,90.40
2023-07-10T05:08:41.233Z,90.40
2023-07-10T05:11:09.029Z,90.50
2023-07-10T05:13:36.951Z,90.70
2023-07-10T05:16:06.855Z,90.50
2023-07-10T05:18:34.831Z,90.40
2023-07-10T05:21:02.905Z,90.50
2023-07-10T05:23:31.372Z,90.40
2023-07-10T05:26:01.304Z,90.50
2023-07-10T05:28:29.371Z,90.60
2023-07-10T05:31:02.467Z,90.60
2023-07-10T05:33:32.800Z,90.60
2023-07-10T05:36:02.068Z,90.60
2023-07-10T05:38:32.329Z,90.60
2023-07-10T05:41:00.638Z,90.60
2023-07-10T05:43:30.236Z,90.50
2023-07-10T05:45:58.945Z,90.60
2023-07-10T05:48:27.055Z,90.60
2023-07-10T05:50:56.317Z,90.60
2023-07-10T05:53:24.736Z,90.50
2023-07-10T05:55:54.332Z,90.60
2023-07-10T05:58:24.075Z,90.60
2023-07-10T06:00:54.696Z,90.70
2023-07-10T06:03:22.660Z,90.60
2023-07-10T06:05:59.918Z,90.60
2023-07-10T06:08:29.957Z,90.70
2023-07-10T06:10:57.860Z,90.70
2023-07-10T06:13:26.459Z,91.10
2023-07-10T06:15:56.763Z,91.10
2023-07-10T06:18:25.741Z,90.70
2023-07-10T06:20:54.562Z,90.70
2023-07-10T06:23:25.315Z,90.70
2023-07-10T06:25:53.509Z,90.80
2023-07-10T06:28:22.243Z,90.80
2023-07-10T06:30:56.675Z,90.70
2023-07-10T06:33:24.642Z,90.70
2023-07-10T06:35:52.671Z,90.70
2023-07-10T06:38:20.929Z,90.70
2023-07-10T06:40:50.661Z,90.80
2023-07-10T06:43:19.166Z,90.80
2023-07-10T06:45:47.598Z,90.90
2023-07-10T06:48:15.965Z,90.80
2023-07-10T06:50:48.038Z,90.80
2023-07-10T06:53:25.613Z,90.80
2023-07-10T06:55:56.875Z,90.70
2023-07-10T06:58:25.045Z,90.60
2023-07-10T07:00:53.350Z,90.40
2023-07-10T07:03:21.990Z,90.50
2023-07-10T07:05:50.082Z,90.60
2023-07-10T07:08:18.603Z,90.50
2023-07-10T07:10:47.223Z,90.50
2023-07-10T07:13:17.312Z,90.30
2023-07-10T07:15:49.895Z,90.30
2023-07-10T07:18:17.735Z,90.20
2023-07-10T07:20:45.563Z,90.00
2023-07-10T07:23:13.343Z,90.00
2023-07-10T07:25:42.782Z,90.00
2023-07-10T07:28:11.321Z,90.30
2023-07-10T07:30:41.018Z,90.30
2023-07-10T07:33:09.010Z,90.30
2023-07-10T07:35:39.171Z,90.40
2023-07-10T07:38:07.002Z,90.20
2023-07-10T07:40:35.023Z,90.30
2023-07-10T07:43:02.822Z,90.30
2023-07-10T07:45:30.667Z,90.30
2023-07-10T07:47:59.993Z,90.40
2023-07-10T07:50:27.940Z,90.40
2023-07-10T07:52:55.989Z,90.30
2023-07-10T07:55:24.028Z,90.20
2023-07-10T07:57:51.911Z,90.10
2023-07-10T08:00:21.994Z,90.00
2023-07-10T08:02:51.090Z,89.90
2023-07-10T08:05:34.471Z,89.80
2023-07-10T08:08:04.583Z,89.60
2023-07-10T08:10:34.931Z,89.80
2023-07-10T08:13:04.742Z,89.40
2023-07-10T08:15:32.568Z,89.20
2023-07-10T08:18:00.549Z,89.10
2023-07-10T08:20:29.900Z,89.20
2023-07-10T08:22:57.677Z,89.20
2023-07-10T08:25:25.536Z,89.50
2023-07-10T08:27:53.319Z,89.00
2023-07-10T08:30:21.145Z,89.00
2023-07-10T08:32:48.961Z,89.40
2023-07-10T08:35:16.879Z,89.50
2023-07-10T08:37:46.016Z,89.40
2023-07-10T08:40:17.929Z,89.00
2023-07-10T08:42:45.795Z,88.80
2023-07-10T08:45:18.113Z,88.90
2023-07-10T08:47:50.499Z,89.00
2023-07-10T08:50:23.923Z,88.70
2023-07-10T08:52:58.587Z,88.60
2023-07-10T08:55:32.627Z,88.60
2023-07-10T08:58:03.666Z,88.30
2023-07-10T09:00:38.541Z,88.40
2023-07-10T09:03:18.371Z,88.10
2023-07-10T09:05:51.754Z,87.90
2023-07-10T09:08:22.117Z,87.70
2023-07-10T09:10:53.249Z,87.40
2023-07-10T09:13:29.047Z,87.00
2023-07-10T09:16:00.313Z,86.90
2023-07-10T09:18:38.019Z,86.70
2023-07-10T09:21:17.378Z,86.70
2023-07-10T09:23:47.380Z,86.80
2023-07-10T09:26:18.453Z,86.80
2023-07-10T09:29:02.443Z,86.80
2023-07-10T09:31:41.780Z,86.60
2023-07-10T09:34:11.926Z,86.60
2023-07-10T09:36:40.218Z,86.30
2023-07-10T09:39:13.322Z,85.70
2023-07-10T09:41:41.103Z,85.60
2023-07-10T09:44:18.194Z,85.60
2023-07-10T09:46:49.522Z,85.80
2023-07-10T09:49:21.718Z,85.80
2023-07-10T09:51:56.699Z,85.50
2023-07-10T09:54:26.471Z,85.10
2023-07-10T09:56:55.972Z,84.30
2023-07-10T09:59:26.789Z,84.40
2023-07-10T10:01:56.431Z,84.70
2023-07-10T10:04:26.927Z,84.60
2023-07-10T10:06:59.014Z,84.40
2023-07-10T10:09:30.150Z,83.90
2023-07-10T10:12:05.305Z,83.50
2023-07-10T10:14:42.994Z,83.60
2023-07-10T10:17:15.082Z,83.30
2023-07-10T10:19:47.835Z,82.70
2023-07-10T10:22:17.105Z,82.60
2023-07-10T10:24:47.948Z,83.10
2023-07-10T10:27:28.356Z,82.90
2023-07-10T10:30:21.893Z,82.60
2023-07-10T10:32:57.515Z,82.40
2023-07-10T10:35:32.952Z,82.10
2023-07-10T10:38:16.512Z,82.20
2023-07-10T10:40:52.592Z,82.40
2023-07-10T10:43:47.238Z,82.40
2023-07-10T10:46:36.070Z,81.90
2023-07-10T10:49:18.802Z,81.90
2023-07-10T10:51:57.538Z,81.30
2023-07-10T10:54:34.245Z,81.00
2023-07-10T10:57:30.618Z,80.80
2023-07-10T11:00:13.827Z,81.00
2023-07-10T11:02:56.915Z,80.60
2023-07-10T11:05:34.555Z,80.20
2023-07-10T11:08:06.362Z,80.50
2023-07-10T11:10:37.270Z,80.70
2023-07-10T11:13:07.215Z,80.30
2023-07-10T11:15:35.672Z,80.10
2023-07-10T11:18:03.832Z,79.40
2023-07-10T11:20:31.837Z,79.00
2023-07-10T11:23:01.390Z,79.00
2023-07-10T11:25:34.486Z,79.10
2023-07-10T11:28:20.494Z,78.60
2023-07-10T11:30:48.864Z,78.80
2023-07-10T11:33:21.288Z,78.50
2023-07-10T11:36:13.969Z,78.40
2023-07-10T11:38:56.911Z,78.60
2023-07-10T11:41:28.550Z,78.80
2023-07-10T11:44:21.639Z,78.00
2023-07-10T11:47:04.364Z,77.80
2023-07-10T11:49:47.699Z,77.60
2023-07-10T11:52:31.931Z,77.10
2023-07-10T11:55:13.942Z,77.50
2023-07-10T11:57:42.023Z,78.20
2023-07-10T12:00:31.910Z,78.20
2023-07-10T12:03:03.936Z,77.80
2023-07-10T12:05:36.356Z,77.50
2023-07-10T12:08:12.796Z,76.20
2023-07-10T12:10:43.533Z,76.70
2023-07-10T12:13:23.749Z,76.20
2023-07-10T12:15:54.602Z,76.30
2023-07-10T12:18:27.392Z,76.90
2023-07-10T12:20:56.358Z,77.10
2023-07-10T12:23:24.284Z,76.60
2023-07-10T12:25:53.864Z,76.00
2023-07-10T12:28:27.502Z,76.20
2023-07-10T12:31:00.627Z,76.10
2023-07-10T12:33:37.837Z,75.70
2023-07-10T12:36:08.792Z,75.30
2023-07-10T12:38:37.757Z,75.60
2023-07-10T12:41:06.915Z,75.40
2023-07-10T12:43:34.717Z,75.50
2023-07-10T12:46:11.915Z,75.20
2023-07-10T12:48:41.746Z,74.70
2023-07-10T12:51:17.833Z,74.40
2023-07-10T12:53:45.909Z,74.60
2023-07-10T12:56:26.216Z,74.20
2023-07-10T12:58:54.628Z,74.20
2023-07-10T13:01:28.407Z,74.40
2023-07-10T13:04:19.697Z,74.90
2023-07-10T13:06:47.589Z,74.20
2023-07-10T13:09:23.994Z,74.00
2023-07-10T13:11:52.916Z,72.90
2023-07-10T13:14:30.169Z,73.20
2023-07-10T13:17:00.619Z,73.40
2023-07-10T13:19:29.248Z,73.00
2023-07-10T13:21:57.068Z,73.30
2023-07-10T13:24:24.810Z,72.40
2023-07-10T13:26:54.203Z,72.80
2023-07-10T13:29:22.068Z,72.80
2023-07-10T13:31:50.031Z,71.20
2023-07-10T13:34:19.139Z,70.60
2023-07-10T13:36:47.177Z,71.80
2023-07-10T13:39:16.636Z,71.60
2023-07-10T13:41:44.887Z,71.50
2023-07-10T13:44:12.873Z,71.60
2023-07-10T13:46:42.379Z,71.40
2023-07-10T13:49:13.876Z,71.30
2023-07-10T13:51:43.741Z,71.20
2023-07-10T13:54:11.729Z,70.70
2023-07-10T13:56:41.643Z,70.00
2023-07-10T13:59:15.998Z,70.00
2023-07-10T14:01:43.883Z,69.90
2023-07-10T14:04:11.917Z,69.60
2023-07-10T14:06:43.704Z,70.00
2023-07-10T14:09:15.784Z,69.90
2023-07-10T14:11:43.849Z,69.40
2023-07-10T14:14:16.014Z,69.40
2023-07-10T14:16:44.597Z,69.00
2023-07-10T14:19:17.350Z,69.00
2023-07-10T14:21:45.660Z,68.70
2023-07-10T14:24:14.820Z,68.40
2023-07-10T14:26:43.445Z,68.20
2023-07-10T14:29:17.393Z,68.10
2023-07-10T14:31:45.529Z,67.80
2023-07-10T14:34:14.006Z,67.50
2023-07-10T14:36:42.361Z,67.70
2023-07-10T14:39:11.847Z,67.40
2023-07-10T14:41:40.974Z,65.60
2023-07-10T14:44:09.474Z,66.70
2023-07-10T14:46:39.326Z,67.60
2023-07-10T14:49:13.820Z,67.20
2023-07-10T14:51:41.736Z,67.30
2023-07-10T14:54:12.824Z,67.30
2023-07-10T14:56:42.570Z,66.70
2023-07-10T14:59:13.393Z,66.20
2023-07-10T15:01:41.748Z,66.30
2023-07-10T15:04:09.671Z,66.90
2023-07-10T15:06:42.259Z,66.90
2023-07-10T15:09:15.162Z,66.30
2023-07-10T15:11:44.800Z,66.50
2023-07-10T15:14:14.696Z,66.00
2023-07-10T15:16:43.871Z,66.10
2023-07-10T15:19:15.567Z,65.70
2023-07-10T15:21:43.417Z,65.70
2023-07-10T15:24:23.357Z,65.50
2023-07-10T15:26:52.575Z,65.50
2023-07-10T15:29:20.648Z,65.00
2023-07-10T15:31:51.612Z,65.30
2023-07-10T15:34:19.738Z,65.40
2023-07-10T15:36:47.627Z,65.20
2023-07-10T15:39:15.964Z,65.20
2023-07-10T15:41:45.394Z,65.10
2023-07-10T15:44:15.959Z,65.10
2023-07-10T15:46:45.283Z,65.00
2023-07-10T15:49:20.729Z,64.70
2023-07-10T15:51:49.368Z,64.50
2023-07-10T15:54:19.044Z,64.10
2023-07-10T15:56:46.984Z,64.10
2023-07-10T15:59:18.003Z,64.10
2023-07-10T16:01:48.183Z,64.30
2023-07-10T16:04:19.655Z,64.10
2023-07-10T16:06:47.594Z,63.70
2023-07-10T16:09:16.396Z,63.20
2023-07-10T16:11:44.227Z,63.20
2023-07-10T16:14:14.217Z,63.10
2023-07-10T16:16:44.708Z,62.70
2023-07-10T16:19:13.003Z,62.50
2023-07-10T16:21:52.206Z,62.20
2023-07-10T16:24:20.989Z,62.30
2023-07-10T16:26:50.254Z,62.20
2023-07-10T16:29:18.018Z,62.00
2023-07-10T16:31:47.090Z,62.00
2023-07-10T16:34:18.349Z,61.50
2023-07-10T16:36:47.453Z,61.20
2023-07-10T16:39:15.443Z,60.30
2023-07-10T16:41:43.292Z,60.30
2023-07-10T16:44:13.302Z,59.90
2023-07-10T16:46:41.308Z,60.40
2023-07-10T16:49:10.403Z,60.10
2023-07-10T16:51:38.175Z,59.70
2023-07-10T16:54:12.307Z,59.80
2023-07-10T16:56:40.788Z,59.70
2023-07-10T16:59:09.778Z,59.20
2023-07-10T17:01:37.852Z,59.00
2023-07-10T17:04:08.058Z,59.00
2023-07-10T17:06:37.627Z,58.70
2023-07-10T17:09:06.011Z,58.70
2023-07-10T17:11:36.640Z,58.50
2023-07-10T17:14:04.713Z,58.40
2023-07-10T17:16:32.642Z,58.30
2023-07-10T17:19:00.561Z,58.60
2023-07-10T17:21:29.668Z,59.00
2023-07-10T17:24:00.916Z,59.30
2023-07-10T17:26:28.689Z,59.70
2023-07-10T17:28:56.433Z,59.80
2023-07-10T17:31:27.950Z,60.10
2023-07-10T17:33:57.862Z,60.20
2023-07-10T17:36:26.705Z,60.40
2023-07-10T17:39:00.235Z,60.70
2023-07-10T17:41:35.194Z,60.80
2023-07-10T17:44:15.490Z,60.80
2023-07-10T17:46:43.332Z,61.00
2023-07-10T17:49:12.339Z,61.10
2023-07-10T17:51:40.662Z,61.30
2023-07-10T17:54:19.158Z,61.30
2023-07-10T17:56:48.272Z,61.70
2023-07-10T17:59:16.638Z,61.70
2023-07-10T18:01:44.729Z,61.90
2023-07-10T18:04:16.268Z,62.10
2023-07-10T18:06:44.313Z,63.00
2023-07-10T18:09:20.021Z,62.30
2023-07-10T18:11:49.744Z,62.50
2023-07-10T18:14:18.259Z,62.60
2023-07-10T18:16:46.151Z,62.80
2023-07-10T18:19:15.790Z,62.80
2023-07-10T18:21:46.799Z,62.90
2023-07-10T18:24:18.926Z,63.00
2023-07-10T18:26:46.862Z,63.20
2023-07-10T18:29:15.969Z,63.50
2023-07-10T18:31:44.717Z,63.50
2023-07-10T18:34:16.463Z,63.60
2023-07-10T18:36:44.246Z,63.90
2023-07-10T18:39:12.517Z,64.10
2023-07-10T18:41:42.345Z,64.30
2023-07-10T18:44:17.413Z,64.50
2023-07-10T18:46:46.701Z,64.60
2023-07-10T18:49:19.325Z,64.60
2023-07-10T18:51:47.450Z,64.80
2023-07-10T18:54:17.874Z,65.00
2023-07-10T18:56:45.662Z,65.00
2023-07-10T18:59:20.337Z,65.10
2023-07-10T19:01:50.013Z,65.20
2023-07-10T19:04:19.779Z,65.40
2023-07-10T19:06:51.482Z,65.50
2023-07-10T19:09:20.961Z,65.70
2023-07-10T19:11:49.365Z,65.90
2023-07-10T19:14:22.059Z,65.80
2023-07-10T19:16:50.584Z,65.80
2023-07-10T19:19:21.342Z,65.80
2023-07-10T19:21:49.565Z,65.80
2023-07-10T19:24:18.635Z,65.70
2023-07-10T19:26:46.605Z,65.80
2023-07-10T19:29:14.465Z,65.80
2023-07-10T19:31:48.442Z,65.90
2023-07-10T19:34:18.048Z,66.00
2023-07-10T19:36:45.831Z,66.10
2023-07-10T19:39:18.527Z,66.10
2023-07-10T19:41:46.450Z,66.10
2023-07-10T19:44:18.967Z,66.10
2023-07-10T19:46:49.093Z,66.20
2023-07-10T19:49:21.874Z,66.40
2023-07-10T19:51:49.631Z,66.40
2023-07-10T19:54:18.191Z,66.60
2023-07-10T19:56:47.069Z,66.60
2023-07-10T19:59:17.657Z,66.70
2023-07-10T20:01:46.238Z,66.90
2023-07-10T20:04:15.373Z,67.70
2023-07-10T20:06:43.351Z,67.10
2023-07-10T20:09:15.657Z,67.30
2023-07-10T20:11:43.453Z,67.50
2023-07-10T20:14:14.558Z,67.70
2023-07-10T20:16:42.889Z,67.80
2023-07-10T20:19:17.406Z,67.90
2023-07-10T20:21:46.110Z,68.00
2023-07-10T20:24:16.038Z,68.20
2023-07-10T20:26:44.902Z,68.30
2023-07-10T20:29:15.512Z,68.40
2023-07-10T20:31:43.863Z,69.40
2023-07-10T20:34:12.709Z,68.70
2023-07-10T20:36:42.869Z,68.90
2023-07-10T20:39:13.751Z,69.10
2023-07-10T20:41:42.148Z,69.30
2023-07-10T20:44:13.692Z,69.30
2023-07-10T20:46:44.820Z,69.50
2023-07-10T20:49:17.113Z,69.60
2023-07-10T20:51:46.722Z,69.70
2023-07-10T20:54:16.659Z,70.60
2023-07-10T20:56:45.637Z,69.90
2023-07-10T20:59:19.966Z,70.10
2023-07-10T21:01:47.919Z,70.10
2023-07-10T21:04:15.710Z,70.30
2023-07-10T21:06:44.751Z,70.40
2023-07-10T21:09:22.028Z,70.30
2023-07-10T21:11:49.880Z,70.70
2023-07-10T21:14:17.723Z,70.70
2023-07-10T21:16:46.065Z,70.80
2023-07-10T21:19:21.347Z,71.00
2023-07-10T21:21:49.768Z,71.00
2023-07-10T21:24:21.476Z,71.10
2023-07-10T21:26:52.422Z,71.40
2023-07-10T21:29:20.156Z,71.40
2023-07-10T21:31:48.114Z,71.60
2023-07-10T21:34:16.459Z,71.60
2023-07-10T21:36:44.878Z,71.60
2023-07-10T21:39:12.653Z,71.70
2023-07-10T21:41:43.821Z,71.80
2023-07-10T21:44:21.621Z,71.90
2023-07-10T21:46:49.983Z,72.00
2023-07-10T21:49:18.745Z,72.20
2023-07-10T21:51:46.815Z,72.30
2023-07-10T21:54:14.780Z,72.30
2023-07-10T21:56:46.510Z,72.30
2023-07-10T21:59:19.660Z,72.40
2023-07-10T22:01:48.105Z,72.50
2023-07-10T22:04:16.489Z,72.60
2023-07-10T22:06:45.969Z,72.70
2023-07-10T22:09:14.714Z,72.80
2023-07-10T22:11:45.464Z,73.00
2023-07-10T22:14:15.931Z,73.00
2023-07-10T22:16:44.767Z,73.00
2023-07-10T22:19:14.596Z,73.20
2023-07-10T22:21:43.413Z,73.30
2023-07-10T22:24:18.751Z,73.40
2023-07-10T22:26:48.204Z,73.30
2023-07-10T22:29:16.565Z,73.40
2023-07-10T22:31:45.809Z,73.40
2023-07-10T22:34:13.794Z,73.50
2023-07-10T22:36:43.521Z,73.50
2023-07-10T22:39:11.421Z,73.60
2023-07-10T22:41:39.426Z,73.70
2023-07-10T22:44:12.622Z,73.70
2023-07-10T22:46:42.113Z,73.80
2023-07-10T22:49:13.133Z,74.00
2023-07-10T22:51:41.426Z,74.00
2023-07-10T22:54:10.899Z,74.20
2023-07-10T22:56:41.285Z,74.20
2023-07-10T22:59:12.439Z,74.30
2023-07-10T23:01:40.184Z,74.40
2023-07-10T23:04:08.110Z,74.50
2023-07-10T23:06:35.855Z,74.40
2023-07-10T23:09:03.951Z,74.50
2023-07-10T23:11:31.709Z,74.60
2023-07-10T23:13:59.865Z,74.60
2023-07-10T23:16:29.113Z,74.70
2023-07-10T23:18:58.578Z,74.80
2023-07-10T23:21:27.593Z,74.90
2023-07-10T23:23:55.705Z,75.00
2023-07-10T23:26:26.102Z,74.90
2023-07-10T23:28:54.411Z,74.90
2023-07-10T23:31:24.313Z,75.00
2023-07-10T23:33:53.694Z,75.00
2023-07-10T23:36:22.397Z,75.00
2023-07-10T23:38:50.309Z,75.10
2023-07-10T23:41:18.426Z,75.10
2023-07-10T23:43:46.574Z,75.10
2023-07-10T23:46:15.110Z,75.30
2023-07-10T23:48:44.640Z,75.40
2023-07-10T23:51:13.872Z,75.50
2023-07-10T23:53:41.983Z,75.50
2023-07-10T23:56:10.642Z,75.70
2023-07-10T23:58:38.624Z,75.70
